Glenwood, Oregon
Current Conditions -  °F | °C
As of 6:53 PM on Monday 20 Oct 2014 (Local Time) from KHIO Reporting Station
Broken Clouds Broken Clouds  
Wind Chill: 54°   Ceiling: 7500
Heat Index: 54°   Visibility: 10mi
Dew Point: 52°   Wind: 6mph
Humidity: 93%   Direction: 130°SE
Pressure: 29.8"   Gusts: NA
Location:  45.6684°N, 123.34°W
Report Text: KHIO 210153Z 13005KT 10SM FEW045 BKN075 12/11 A2980 RMK AO2 RAE03 SLP092 P0000 T01220111
Loading
Personal Weather Stations






























Interactive Weather Map
Tropical Storm Tracking
New forecast layout! Learn more

10-Day Weather Forecast

Advertisements
Track Severe Weather on mobile